createdAt,value
2019-05-14T00:02:13.577Z,7.00
2019-05-14T00:04:44.217Z,7.00
2019-05-14T00:07:14.670Z,7.00
2019-05-14T00:09:45.349Z,6.90
2019-05-14T00:12:16.087Z,7.00
2019-05-14T00:14:47.521Z,6.90
2019-05-14T00:17:18.148Z,6.90
2019-05-14T00:20:02.709Z,6.90
2019-05-14T00:22:21.820Z,6.90
2019-05-14T00:24:52.498Z,6.80
2019-05-14T00:27:24.552Z,6.90
2019-05-14T00:29:55.275Z,6.80
2019-05-14T00:32:26.037Z,6.80
2019-05-14T00:34:56.826Z,6.80
2019-05-14T00:37:27.493Z,6.80
2019-05-14T00:39:58.050Z,6.80
2019-05-14T00:42:28.637Z,6.70
2019-05-14T00:45:01.242Z,6.70
2019-05-14T00:47:32.945Z,6.70
2019-05-14T00:50:03.629Z,6.70
2019-05-14T00:52:34.194Z,6.70
2019-05-14T00:55:05.340Z,6.70
2019-05-14T00:57:36.136Z,6.60
2019-05-14T01:00:07.355Z,6.60
2019-05-14T01:02:38.224Z,6.60
2019-05-14T01:05:12.174Z,6.60
2019-05-14T01:07:42.499Z,6.60
2019-05-14T01:10:13.605Z,6.60
2019-05-14T01:12:44.577Z,6.60
2019-05-14T01:15:15.553Z,6.60
2019-05-14T01:17:46.369Z,6.60
2019-05-14T01:20:17.003Z,6.60
2019-05-14T01:22:51.396Z,6.50
2019-05-14T01:25:23.597Z,6.50
2019-05-14T01:27:54.617Z,6.50
2019-05-14T01:30:25.109Z,6.50
2019-05-14T01:32:55.735Z,6.50
2019-05-14T01:35:26.329Z,6.50
2019-05-14T01:37:57.063Z,6.50
2019-05-14T01:40:28.033Z,6.50
2019-05-14T01:42:58.505Z,6.50
2019-05-14T01:45:31.451Z,6.50
2019-05-14T01:48:01.783Z,6.50
2019-05-14T01:50:32.511Z,6.50
2019-05-14T01:53:04.093Z,6.50
2019-05-14T01:55:34.984Z,6.50
2019-05-14T01:58:05.772Z,6.50
2019-05-14T02:00:36.486Z,6.50
2019-05-14T02:03:07.133Z,6.50
2019-05-14T02:05:37.943Z,6.50
2019-05-14T02:08:08.755Z,6.50
2019-05-14T02:10:39.290Z,6.50
2019-05-14T02:13:12.124Z,6.50
2019-05-14T02:15:42.990Z,6.50
2019-05-14T02:18:13.816Z,6.50
2019-05-14T02:20:44.668Z,6.50
2019-05-14T02:23:15.287Z,6.50
2019-05-14T02:25:45.840Z,6.50
2019-05-14T02:28:16.574Z,6.50
2019-05-14T02:30:56.965Z,6.50
2019-05-14T02:33:19.669Z,6.50
2019-05-14T02:35:50.335Z,6.50
2019-05-14T02:38:20.920Z,6.50
2019-05-14T02:40:52.060Z,6.50
2019-05-14T02:43:22.579Z,6.40
2019-05-14T02:46:09.476Z,6.40
2019-05-14T02:48:25.611Z,6.40
2019-05-14T02:50:56.137Z,6.40
2019-05-14T02:53:29.684Z,6.40
2019-05-14T02:56:00.794Z,6.40
2019-05-14T02:58:31.658Z,6.40
2019-05-14T03:01:02.423Z,6.40
2019-05-14T03:03:33.274Z,6.40
2019-05-14T03:06:03.975Z,6.40
2019-05-14T03:08:34.500Z,6.40
2019-05-14T03:11:05.230Z,6.40
2019-05-14T03:13:36.156Z,6.40
2019-05-14T03:16:22.162Z,6.40
2019-05-14T03:18:39.831Z,6.40
2019-05-14T03:21:10.457Z,6.40
2019-05-14T03:23:41.403Z,6.40
2019-05-14T03:26:12.067Z,6.40
2019-05-14T03:28:42.991Z,6.40
2019-05-14T03:31:13.783Z,6.40
2019-05-14T03:33:45.069Z,6.40
2019-05-14T03:36:23.652Z,6.40
2019-05-14T03:38:50.231Z,6.40
2019-05-14T03:41:21.262Z,6.40
2019-05-14T03:43:52.259Z,6.40
2019-05-14T03:46:41.214Z,6.40
2019-05-14T03:48:55.854Z,6.40
2019-05-14T03:51:29.594Z,6.40
2019-05-14T03:54:06.697Z,6.40
2019-05-14T03:56:31.728Z,6.40
2019-05-14T03:59:02.523Z,6.40
2019-05-14T04:01:33.674Z,6.40
2019-05-14T04:04:04.202Z,6.40
2019-05-14T04:06:35.074Z,6.40
2019-05-14T04:09:09.661Z,6.40
2019-05-14T04:11:42.943Z,6.50
2019-05-14T04:14:19.845Z,6.50
2019-05-14T04:17:08.089Z,6.50
2019-05-14T04:19:25.539Z,6.50
2019-05-14T04:21:59.890Z,6.50
2019-05-14T04:24:31.727Z,6.50
2019-05-14T04:27:07.741Z,6.50
2019-05-14T04:29:39.570Z,6.50
2019-05-14T04:32:11.462Z,6.50
2019-05-14T04:34:43.170Z,6.50
2019-05-14T04:37:14.051Z,6.50
2019-05-14T04:39:44.944Z,6.50
2019-05-14T04:42:16.027Z,6.60
2019-05-14T04:44:49.988Z,6.50
2019-05-14T04:47:31.463Z,6.50
2019-05-14T04:49:51.183Z,6.50
2019-05-14T04:52:21.925Z,6.60
2019-05-14T04:54:59.193Z,6.60
2019-05-14T04:57:29.949Z,6.60
2019-05-14T05:00:00.531Z,6.60
2019-05-14T05:02:32.256Z,6.60
2019-05-14T05:05:02.879Z,6.70
2019-05-14T05:07:33.474Z,6.70
2019-05-14T05:10:04.507Z,6.70
2019-05-14T05:12:38.563Z,6.80
2019-05-14T05:15:09.574Z,6.80
2019-05-14T05:17:48.170Z,6.80
2019-05-14T05:20:12.541Z,6.80
2019-05-14T05:22:43.125Z,6.80
2019-05-14T05:25:14.249Z,6.80
2019-05-14T05:27:45.752Z,6.80
2019-05-14T05:30:18.863Z,6.80
2019-05-14T05:32:49.519Z,6.80
2019-05-14T05:35:20.534Z,6.80
2019-05-14T05:37:51.112Z,6.80
2019-05-14T05:40:21.692Z,6.80
2019-05-14T05:42:52.219Z,6.80
2019-05-14T05:45:22.780Z,6.90
2019-05-14T05:47:58.129Z,6.80
2019-05-14T05:50:25.735Z,6.80
2019-05-14T05:52:58.539Z,6.80
2019-05-14T05:55:28.975Z,6.80
2019-05-14T05:58:00.133Z,6.90
2019-05-14T06:00:40.124Z,7.00
2019-05-14T06:03:12.078Z,6.90
2019-05-14T06:05:43.480Z,6.90
2019-05-14T06:08:14.260Z,7.00
2019-05-14T06:10:44.882Z,7.00
2019-05-14T06:13:18.122Z,7.00
2019-05-14T06:15:52.149Z,7.00
2019-05-14T06:18:22.277Z,7.00
2019-05-14T06:20:53.271Z,6.90
2019-05-14T06:23:24.054Z,7.00
2019-05-14T06:25:54.869Z,7.00
2019-05-14T06:28:32.164Z,7.00
2019-05-14T06:30:58.883Z,7.00
2019-05-14T06:33:30.016Z,7.00
2019-05-14T06:36:02.140Z,7.00
2019-05-14T06:38:33.276Z,7.10
2019-05-14T06:41:04.219Z,7.10
2019-05-14T06:43:35.129Z,7.10
2019-05-14T06:46:08.694Z,7.20
2019-05-14T06:48:39.691Z,7.20
2019-05-14T06:51:10.605Z,7.30
2019-05-14T06:53:41.300Z,7.30
2019-05-14T06:56:12.163Z,7.30
2019-05-14T06:58:42.819Z,7.30
2019-05-14T07:01:13.501Z,7.30
2019-05-14T07:03:44.781Z,7.20
2019-05-14T07:06:18.348Z,7.30
2019-05-14T07:08:50.560Z,7.30
2019-05-14T07:11:24.331Z,7.20
2019-05-14T07:13:55.347Z,7.30
2019-05-14T07:16:28.491Z,7.30
2019-05-14T07:18:59.194Z,7.30
2019-05-14T07:21:29.927Z,7.30
2019-05-14T07:24:00.729Z,7.30
2019-05-14T07:26:31.905Z,7.40
2019-05-14T07:29:02.823Z,7.40
2019-05-14T07:31:33.914Z,7.50
2019-05-14T07:34:04.656Z,7.50
2019-05-14T07:36:38.515Z,7.50
2019-05-14T07:39:09.561Z,7.50
2019-05-14T07:41:40.725Z,7.40
2019-05-14T07:44:11.380Z,7.40
2019-05-14T07:46:42.318Z,7.30
2019-05-14T07:49:13.015Z,7.30
2019-05-14T07:51:43.952Z,7.20
2019-05-14T07:54:14.540Z,7.20
2019-05-14T07:56:45.482Z,7.20
2019-05-14T07:59:18.107Z,7.20
2019-05-14T08:01:49.215Z,7.30
2019-05-14T08:04:20.125Z,7.40
2019-05-14T08:06:50.953Z,7.40
2019-05-14T08:09:22.157Z,7.30
2019-05-14T08:11:52.926Z,7.30
2019-05-14T08:14:23.588Z,7.30
2019-05-14T08:16:54.354Z,7.40
2019-05-14T08:19:27.893Z,7.40
2019-05-14T08:21:58.702Z,7.40
2019-05-14T08:24:30.214Z,7.40
2019-05-14T08:27:00.757Z,7.40
2019-05-14T08:29:31.371Z,7.40
2019-05-14T08:32:02.184Z,7.40
2019-05-14T08:34:33.062Z,7.40
2019-05-14T08:37:04.302Z,7.20
2019-05-14T08:39:38.856Z,7.30
2019-05-14T08:42:08.888Z,7.40
2019-05-14T08:44:39.689Z,7.50
2019-05-14T08:47:10.884Z,7.60
2019-05-14T08:49:46.474Z,7.60
2019-05-14T08:52:16.180Z,7.80
2019-05-14T08:54:49.055Z,7.80
2019-05-14T08:57:19.294Z,7.80
2019-05-14T08:59:50.614Z,7.90
2019-05-14T09:02:21.368Z,7.90
2019-05-14T09:04:54.570Z,8.00
2019-05-14T09:07:25.344Z,8.10
2019-05-14T09:09:55.915Z,8.30
2019-05-14T09:12:28.080Z,8.30
2019-05-14T09:14:59.039Z,8.30
2019-05-14T09:17:30.113Z,8.50
2019-05-14T09:20:06.606Z,8.50
2019-05-14T09:22:33.442Z,8.60
2019-05-14T09:25:04.143Z,8.70
2019-05-14T09:27:34.639Z,8.70
2019-05-14T09:30:05.897Z,8.80
2019-05-14T09:32:38.764Z,8.70
2019-05-14T09:35:10.073Z,8.50
2019-05-14T09:37:41.257Z,8.50
2019-05-14T09:40:12.029Z,8.40
2019-05-14T09:42:42.687Z,8.30
2019-05-14T09:45:14.103Z,8.30
2019-05-14T09:47:49.821Z,8.30
2019-05-14T09:50:22.867Z,8.20
2019-05-14T09:52:49.769Z,8.20
2019-05-14T09:55:20.416Z,8.20
2019-05-14T09:57:51.068Z,8.20
2019-05-14T10:00:22.595Z,8.20
2019-05-14T10:02:54.213Z,8.20
2019-05-14T10:05:25.510Z,8.10
2019-05-14T10:07:59.269Z,8.20
2019-05-14T10:10:30.494Z,8.20
2019-05-14T10:13:01.964Z,8.20
2019-05-14T10:15:32.870Z,8.20
2019-05-14T10:18:03.429Z,8.20
2019-05-14T10:20:40.986Z,8.20
2019-05-14T10:23:06.028Z,8.10
2019-05-14T10:25:40.221Z,8.10
2019-05-14T10:28:09.247Z,8.10
2019-05-14T10:30:39.736Z,8.10
2019-05-14T10:33:14.905Z,8.10
2019-05-14T10:35:42.857Z,8.20
2019-05-14T10:38:13.749Z,8.30
2019-05-14T10:40:45.401Z,8.40
2019-05-14T10:43:16.145Z,8.30
2019-05-14T10:45:49.191Z,8.40
2019-05-14T10:48:19.079Z,8.30
2019-05-14T10:50:58.980Z,8.40
2019-05-14T10:53:22.527Z,8.40
2019-05-14T10:55:53.527Z,8.40
2019-05-14T10:58:29.070Z,8.30
2019-05-14T11:00:59.491Z,8.30
2019-05-14T11:03:30.406Z,8.40
2019-05-14T11:06:01.255Z,8.30
2019-05-14T11:08:31.923Z,8.30
2019-05-14T11:11:03.995Z,8.30
2019-05-14T11:13:34.966Z,8.20
2019-05-14T11:16:08.400Z,8.10
2019-05-14T11:18:39.915Z,8.20
2019-05-14T11:21:25.597Z,8.20
2019-05-14T11:23:43.143Z,8.20
2019-05-14T11:26:13.848Z,8.20
2019-05-14T11:28:44.676Z,8.20
2019-05-14T11:31:15.329Z,8.20
2019-05-14T11:33:46.223Z,8.20
2019-05-14T11:36:18.808Z,8.20
2019-05-14T11:38:50.841Z,8.10
2019-05-14T11:41:21.502Z,8.20
2019-05-14T11:43:52.021Z,8.20
2019-05-14T11:46:38.702Z,8.10
2019-05-14T11:48:55.473Z,8.10
2019-05-14T11:51:56.188Z,8.00
2019-05-14T11:53:59.536Z,8.10
2019-05-14T11:56:30.345Z,8.00
2019-05-14T11:59:01.291Z,8.00
2019-05-14T12:01:31.759Z,8.10
2019-05-14T12:04:02.468Z,8.10
2019-05-14T12:06:33.143Z,8.10
2019-05-14T12:09:04.810Z,8.10
2019-05-14T12:11:35.514Z,8.20
2019-05-14T12:14:08.590Z,8.10
2019-05-14T12:16:40.101Z,8.10
2019-05-14T12:19:11.964Z,8.10
2019-05-14T12:21:58.805Z,8.10
2019-05-14T12:24:18.446Z,8.20
2019-05-14T12:26:49.728Z,8.20
2019-05-14T12:29:20.955Z,8.00
2019-05-14T12:31:51.684Z,8.10
2019-05-14T12:34:22.621Z,8.00
2019-05-14T12:36:53.397Z,8.00
2019-05-14T12:39:25.180Z,8.00
2019-05-14T12:41:58.068Z,8.00
2019-05-14T12:44:29.092Z,8.10
2019-05-14T12:47:00.918Z,8.10
2019-05-14T12:49:31.584Z,8.10
2019-05-14T12:52:17.894Z,8.10
2019-05-14T12:54:34.765Z,8.20
2019-05-14T12:57:05.407Z,8.20
2019-05-14T12:59:37.954Z,8.20
2019-05-14T13:02:09.681Z,8.20
2019-05-14T13:04:40.722Z,8.20
2019-05-14T13:07:11.392Z,8.30
2019-05-14T13:09:42.359Z,8.30
2019-05-14T13:12:13.194Z,8.30
2019-05-14T13:14:44.084Z,8.40
2019-05-14T13:17:14.842Z,8.40
2019-05-14T13:19:45.783Z,8.50
2019-05-14T13:22:20.851Z,8.50
2019-05-14T13:24:49.627Z,8.50
2019-05-14T13:27:20.359Z,8.50
2019-05-14T13:29:51.156Z,8.50
2019-05-14T13:32:21.976Z,8.50
2019-05-14T13:34:52.398Z,8.50
2019-05-14T13:37:23.605Z,8.50
2019-05-14T13:39:54.092Z,8.60
2019-05-14T13:42:25.118Z,8.60
2019-05-14T13:44:55.692Z,8.60
2019-05-14T13:47:28.778Z,8.60
2019-05-14T13:49:59.517Z,8.70
2019-05-14T13:52:30.361Z,8.70
2019-05-14T13:55:01.026Z,8.70
2019-05-14T13:57:31.897Z,8.70
2019-05-14T14:00:02.529Z,8.70
2019-05-14T14:02:34.770Z,8.80
2019-05-14T14:05:05.698Z,8.70
2019-05-14T14:07:39.460Z,8.80
2019-05-14T14:10:10.462Z,8.70
2019-05-14T14:12:41.542Z,8.80
2019-05-14T14:15:12.605Z,8.80
2019-05-14T14:17:43.738Z,8.70
2019-05-14T14:20:15.445Z,8.70
2019-05-14T14:22:48.889Z,8.70
2019-05-14T14:25:18.872Z,8.70
2019-05-14T14:27:49.618Z,8.70
2019-05-14T14:30:20.563Z,8.70
2019-05-14T14:32:51.339Z,8.70
2019-05-14T14:35:24.098Z,8.70
2019-05-14T14:37:54.526Z,8.60
2019-05-14T14:40:26.473Z,8.60
2019-05-14T14:43:03.406Z,8.60
2019-05-14T14:45:34.387Z,8.60
2019-05-14T14:48:04.966Z,8.60
2019-05-14T14:50:35.457Z,8.70
2019-05-14T14:53:09.105Z,8.70
2019-05-14T14:55:40.043Z,8.70
2019-05-14T14:58:11.856Z,8.60
2019-05-14T15:00:42.750Z,8.70
2019-05-14T15:03:13.463Z,8.70
2019-05-14T15:05:44.058Z,8.70
2019-05-14T15:08:14.625Z,8.70
2019-05-14T15:10:45.270Z,8.60
2019-05-14T15:13:17.009Z,8.60
2019-05-14T15:15:49.538Z,8.60
2019-05-14T15:18:20.180Z,8.50
2019-05-14T15:20:50.804Z,8.50
2019-05-14T15:23:21.367Z,8.50
2019-05-14T15:25:52.158Z,8.50
2019-05-14T15:28:22.895Z,8.60
2019-05-14T15:30:53.957Z,8.60
2019-05-14T15:33:24.933Z,8.50
2019-05-14T15:35:58.145Z,8.40
2019-05-14T15:38:30.271Z,8.40
2019-05-14T15:41:00.543Z,8.40
2019-05-14T15:43:31.428Z,8.50
2019-05-14T15:46:02.373Z,8.50
2019-05-14T15:48:32.958Z,8.60
2019-05-14T15:51:03.375Z,8.60
2019-05-14T15:53:34.255Z,8.60
2019-05-14T15:56:04.680Z,8.70
2019-05-14T15:58:35.535Z,8.70
2019-05-14T16:01:06.260Z,8.70
2019-05-14T16:03:37.134Z,8.70
2019-05-14T16:06:09.178Z,8.70
2019-05-14T16:08:40.352Z,8.70
2019-05-14T16:11:12.454Z,8.70
2019-05-14T16:13:43.119Z,8.70
2019-05-14T16:16:13.999Z,8.70
2019-05-14T16:18:44.642Z,8.70
2019-05-14T16:21:15.215Z,8.80
2019-05-14T16:23:45.850Z,8.70
2019-05-14T16:26:18.786Z,8.70
2019-05-14T16:28:49.266Z,8.70
2019-05-14T16:31:19.986Z,8.70
2019-05-14T16:33:50.712Z,8.70
2019-05-14T16:36:21.380Z,8.60
2019-05-14T16:38:52.068Z,8.60
2019-05-14T16:41:22.604Z,8.70
2019-05-14T16:43:53.324Z,8.60
2019-05-14T16:46:24.073Z,8.60
2019-05-14T16:48:54.728Z,8.60
2019-05-14T16:51:25.564Z,8.60
2019-05-14T16:53:56.148Z,8.60
2019-05-14T16:56:28.443Z,8.60
2019-05-14T16:58:59.220Z,8.60
2019-05-14T17:01:33.449Z,8.60
2019-05-14T17:04:01.960Z,8.70
2019-05-14T17:06:34.814Z,8.60
2019-05-14T17:09:08.823Z,8.60
2019-05-14T17:11:39.386Z,8.60
2019-05-14T17:14:10.088Z,8.60
2019-05-14T17:16:40.906Z,8.60
2019-05-14T17:19:11.686Z,8.60
2019-05-14T17:21:42.876Z,8.60
2019-05-14T17:24:13.381Z,8.70
2019-05-14T17:26:44.163Z,8.70
2019-05-14T17:29:16.498Z,8.70
2019-05-14T17:31:49.354Z,8.70
2019-05-14T17:34:20.145Z,8.70
2019-05-14T17:36:51.094Z,8.70
2019-05-14T17:39:22.060Z,8.70
2019-05-14T17:41:52.913Z,8.70
2019-05-14T17:44:23.816Z,8.70
2019-05-14T17:46:54.757Z,8.60
2019-05-14T17:49:28.212Z,8.70
2019-05-14T17:51:58.283Z,8.60
2019-05-14T17:54:29.527Z,8.60
2019-05-14T17:57:00.574Z,8.60
2019-05-14T17:59:33.534Z,8.60
2019-05-14T18:02:03.615Z,8.60
2019-05-14T18:04:34.566Z,8.60
2019-05-14T18:07:05.570Z,8.50
2019-05-14T18:09:36.620Z,8.50
2019-05-14T18:12:08.298Z,8.60
2019-05-14T18:14:39.310Z,8.50
2019-05-14T18:17:10.182Z,8.60
2019-05-14T18:19:41.358Z,8.60
2019-05-14T18:22:12.343Z,8.60
2019-05-14T18:24:43.396Z,8.60
2019-05-14T18:27:14.122Z,8.60
2019-05-14T18:29:45.052Z,8.60
2019-05-14T18:32:15.875Z,8.60
2019-05-14T18:34:48.606Z,8.50
2019-05-14T18:37:19.014Z,8.50
2019-05-14T18:39:49.956Z,8.50
2019-05-14T18:42:21.041Z,8.50
2019-05-14T18:44:51.874Z,8.50
2019-05-14T18:47:22.980Z,8.50
2019-05-14T18:49:53.553Z,8.50
2019-05-14T18:52:24.220Z,8.50
2019-05-14T18:54:55.277Z,8.50
2019-05-14T18:57:25.966Z,8.50
2019-05-14T18:59:56.784Z,8.50
2019-05-14T19:02:29.284Z,8.50
2019-05-14T19:05:00.633Z,8.50
2019-05-14T19:07:31.690Z,8.40
2019-05-14T19:10:02.388Z,8.40
2019-05-14T19:12:34.331Z,8.40
2019-05-14T19:15:08.506Z,8.40
2019-05-14T19:17:38.865Z,8.40
2019-05-14T19:20:10.676Z,8.40
2019-05-14T19:22:41.410Z,8.30
2019-05-14T19:25:12.175Z,8.30
2019-05-14T19:27:42.834Z,8.40
2019-05-14T19:30:13.830Z,8.40
2019-05-14T19:32:44.800Z,8.40
2019-05-14T19:35:15.477Z,8.40
2019-05-14T19:37:48.563Z,8.40
2019-05-14T19:40:19.952Z,8.40
2019-05-14T19:42:50.727Z,8.40
2019-05-14T19:45:21.210Z,8.40
2019-05-14T19:47:52.152Z,8.30
2019-05-14T19:50:22.599Z,8.30
2019-05-14T19:52:53.442Z,8.30
2019-05-14T19:55:24.206Z,8.30
2019-05-14T19:57:55.131Z,8.30
2019-05-14T20:00:28.786Z,8.20
2019-05-14T20:02:59.702Z,8.30
2019-05-14T20:05:30.158Z,8.30
2019-05-14T20:08:00.850Z,8.30
2019-05-14T20:10:31.441Z,8.30
2019-05-14T20:13:02.093Z,8.30
2019-05-14T20:15:32.792Z,8.30
2019-05-14T20:18:03.393Z,8.30
2019-05-14T20:20:34.291Z,8.40
2019-05-14T20:23:05.196Z,8.40
2019-05-14T20:25:38.572Z,8.40
2019-05-14T20:28:08.869Z,8.40
2019-05-14T20:30:39.880Z,8.30
2019-05-14T20:33:10.790Z,8.30
2019-05-14T20:35:41.757Z,8.30
2019-05-14T20:38:13.060Z,8.30
2019-05-14T20:40:44.284Z,8.40
2019-05-14T20:43:15.039Z,8.40
2019-05-14T20:45:48.611Z,8.30
2019-05-14T20:48:18.828Z,8.40
2019-05-14T20:50:50.054Z,8.30
2019-05-14T20:53:20.820Z,8.30
2019-05-14T20:55:51.424Z,8.30
2019-05-14T20:58:23.868Z,8.30
2019-05-14T21:00:54.509Z,8.30
2019-05-14T21:03:25.222Z,8.20
2019-05-14T21:05:58.215Z,8.30
2019-05-14T21:08:28.359Z,8.20
2019-05-14T21:10:59.486Z,8.20
2019-05-14T21:13:30.580Z,8.20
2019-05-14T21:16:01.318Z,8.10
2019-05-14T21:18:35.071Z,8.10
2019-05-14T21:21:04.885Z,8.00
2019-05-14T21:23:35.610Z,8.00
2019-05-14T21:26:08.426Z,8.00
2019-05-14T21:28:39.329Z,8.00
2019-05-14T21:31:10.513Z,8.00
2019-05-14T21:33:41.602Z,8.00
2019-05-14T21:36:12.515Z,7.90
2019-05-14T21:38:44.788Z,7.90
2019-05-14T21:41:15.676Z,7.90
2019-05-14T21:43:46.249Z,8.00
2019-05-14T21:46:19.210Z,8.00
2019-05-14T21:48:49.299Z,8.00
2019-05-14T21:51:20.201Z,8.00
2019-05-14T21:53:50.977Z,8.00
2019-05-14T21:56:21.998Z,8.00
2019-05-14T21:58:52.783Z,8.00
2019-05-14T22:01:24.099Z,8.00
2019-05-14T22:03:54.690Z,8.00
2019-05-14T22:06:25.409Z,8.00
2019-05-14T22:08:56.126Z,8.00
2019-05-14T22:11:28.234Z,8.00
2019-05-14T22:13:58.997Z,8.00
2019-05-14T22:16:29.598Z,8.00
2019-05-14T22:19:00.239Z,8.00
2019-05-14T22:21:31.024Z,7.90
2019-05-14T22:24:02.700Z,8.00
2019-05-14T22:26:33.217Z,8.00
2019-05-14T22:29:03.968Z,8.00
2019-05-14T22:31:35.114Z,8.00
2019-05-14T22:34:05.694Z,7.90
2019-05-14T22:36:38.450Z,7.90
2019-05-14T22:39:08.454Z,7.90
2019-05-14T22:41:39.108Z,7.90
2019-05-14T22:44:09.744Z,8.00
2019-05-14T22:46:40.507Z,8.00
2019-05-14T22:49:11.864Z,8.00
2019-05-14T22:51:42.465Z,8.00
2019-05-14T22:54:13.145Z,7.90
2019-05-14T22:56:43.825Z,7.90
2019-05-14T22:59:14.418Z,7.90
2019-05-14T23:01:44.837Z,7.90
2019-05-14T23:04:15.428Z,8.00
2019-05-14T23:06:46.144Z,7.90
2019-05-14T23:09:18.988Z,7.90
2019-05-14T23:11:49.547Z,7.90
2019-05-14T23:14:20.235Z,7.90
2019-05-14T23:16:51.071Z,7.90
2019-05-14T23:19:25.356Z,7.90
2019-05-14T23:21:57.915Z,7.90
2019-05-14T23:24:28.625Z,7.90
2019-05-14T23:26:59.520Z,8.00
2019-05-14T23:29:30.116Z,7.90
2019-05-14T23:32:00.539Z,7.90
2019-05-14T23:34:31.255Z,7.90
2019-05-14T23:37:02.662Z,7.90
2019-05-14T23:39:33.760Z,7.90
2019-05-14T23:42:04.662Z,7.90
2019-05-14T23:44:35.245Z,7.90
2019-05-14T23:47:08.174Z,7.90
2019-05-14T23:49:38.947Z,7.90
2019-05-14T23:52:09.656Z,7.90
2019-05-14T23:54:40.359Z,7.90
2019-05-14T23:57:11.104Z,7.90
2019-05-14T23:59:48.681Z,7.90
